PWSweather.com
Personal Weather Stations
Station Observations
URBANDALE
Westwind Acres And Meredith Hills, Urbandale, IA 50322

Westwind Acres And Meredith HillsUrbandale, IA 50322

Lat: 41.643, Lon: -93.709

Elevation: 928

Station Type:

http://urbandaleweather.com

High Low Average
Temperature 34.0°F1.1°C 10.0°F-12.2°C 22.7°F-5.2°C
Dew Point 22.1°F-5.5°C 7.3°F-13.7°C 15.1°F-9.4°C
Winds 4.0 mph 6.4 kmh Calm Calm 1.0 mph S1.6 kmh S
Wind Gusts 18.0 mph29.0 kmh -- 3.0 mph4.8 kmh
Humidity 91% 54% 73%
Pressure 30.27 in1025.1 mb 30.10 in1019.3 mb -
Precipitation 0.01 in0.3 mm - -
Hour Temp Dew Point Humidity Winds Wind Gusts Pressure Precip Precip Rate Daily Precip Total
12:04 AM 18.1°F-7.7°C 11.3°F-11.5°C 74% Calm Calm -- 30.19 in1022.4 mb 0.00 in0.0 mm 0.00 in0.0 mm 0.00 in0.0 mm
12:09 AM 18.0°F-7.8°C 11.1°F-11.6°C 74% Calm Calm 1.0 mph1.6 kmh 30.19 in1022.4 mb 0.00 in0.0 mm 0.00 in0.0 mm 0.00 in0.0 mm
12:14 AM 17.8°F-7.9°C 11.1°F-11.6°C 75% Calm Calm 1.0 mph1.6 kmh 30.19 in1022.4 mb 0.00 in0.0 mm 0.00 in0.0 mm 0.00 in0.0 mm
12:19 AM 17.4°F-8.1°C 10.9°F-11.7°C 75% Calm Calm -- 30.19 in1022.4 mb 0.00 in0.0 mm 0.00 in0.0 mm 0.00 in0.0 mm
12:24 AM 17.2°F-8.2°C 10.8°F-11.8°C 75% Calm Calm -- 30.19 in1022.4 mb 0.00 in0.0 mm 0.00 in0.0 mm 0.00 in0.0 mm
12:29 AM 17.1°F-8.3°C 10.8°F-11.8°C 76% Calm Calm -- 30.19 in1022.4 mb 0.00 in0.0 mm 0.00 in0.0 mm 0.00 in0.0 mm
12:34 AM 16.7°F-8.5°C 10.8°F-11.8°C 77% Calm Calm -- 30.19 in1022.4 mb 0.00 in0.0 mm 0.00 in0.0 mm 0.00 in0.0 mm
12:39 AM 16.3°F-8.7°C 10.8°F-11.8°C 78% Calm Calm -- 30.19 in1022.4 mb 0.00 in0.0 mm 0.00 in0.0 mm 0.00 in0.0 mm
12:44 AM 16.3°F-8.7°C 10.9°F-11.7°C 79% Calm Calm -- 30.19 in1022.4 mb 0.00 in0.0 mm 0.00 in0.0 mm 0.00 in0.0 mm
12:49 AM 16.2°F-8.8°C 10.8°F-11.8°C 79% Calm Calm -- 30.19 in1022.4 mb 0.00 in0.0 mm 0.00 in0.0 mm 0.00 in0.0 mm
12:54 AM 15.6°F-9.1°C 10.0°F-12.2°C 78% Calm Calm -- 30.19 in1022.4 mb 0.00 in0.0 mm 0.00 in0.0 mm 0.00 in0.0 mm
12:59 AM 15.1°F-9.4°C 9.5°F-12.5°C 78% Calm Calm -- 30.19 in1022.4 mb 0.00 in0.0 mm 0.00 in0.0 mm 0.00 in0.0 mm
01:04 AM 14.7°F-9.6°C 9.7°F-12.4°C 80% Calm Calm -- 30.20 in1022.7 mb 0.00 in0.0 mm 0.00 in0.0 mm 0.00 in0.0 mm
01:09 AM 14.5°F-9.7°C 9.9°F-12.3°C 81% Calm Calm -- 30.20 in1022.7 mb 0.00 in0.0 mm 0.00 in0.0 mm 0.00 in0.0 mm
01:14 AM 14.4°F-9.8°C 9.9°F-12.3°C 82% Calm Calm -- 30.20 in1022.7 mb 0.00 in0.0 mm 0.00 in0.0 mm 0.00 in0.0 mm
01:19 AM 14.2°F-9.9°C 9.7°F-12.4°C 82% Calm Calm -- 30.20 in1022.7 mb 0.00 in0.0 mm 0.00 in0.0 mm 0.00 in0.0 mm
01:24 AM 13.8°F-10.1°C 9.7°F-12.4°C 83% Calm Calm -- 30.20 in1022.7 mb 0.00 in0.0 mm 0.00 in0.0 mm 0.00 in0.0 mm
01:29 AM 13.8°F-10.1°C 9.7°F-12.4°C 83% Calm Calm -- 30.19 in1022.4 mb 0.00 in0.0 mm 0.00 in0.0 mm 0.00 in0.0 mm
01:34 AM 13.8°F-10.1°C 9.9°F-12.3°C 84% Calm Calm -- 30.20 in1022.7 mb 0.00 in0.0 mm 0.00 in0.0 mm 0.00 in0.0 mm
01:39 AM 14.0°F-10.0°C 10.4°F-12.0°C 85% Calm Calm -- 30.20 in1022.7 mb 0.00 in0.0 mm 0.00 in0.0 mm 0.00 in0.0 mm
01:44 AM 14.0°F-10.0°C 10.0°F-12.2°C 84% Calm Calm -- 30.20 in1022.7 mb 0.00 in0.0 mm 0.00 in0.0 mm 0.00 in0.0 mm
01:49 AM 14.0°F-10.0°C 10.0°F-12.2°C 84% Calm Calm -- 30.20 in1022.7 mb 0.00 in0.0 mm 0.00 in0.0 mm 0.00 in0.0 mm
01:54 AM 13.6°F-10.2°C 9.7°F-12.4°C 84% Calm Calm -- 30.20 in1022.7 mb 0.00 in0.0 mm 0.00 in0.0 mm 0.00 in0.0 mm
01:59 AM 13.3°F-10.4°C 9.1°F-12.7°C 83% Calm Calm -- 30.20 in1022.7 mb 0.00 in0.0 mm 0.00 in0.0 mm 0.00 in0.0 mm
02:04 AM 12.7°F-10.7°C 8.6°F-13.0°C 83% Calm Calm -- 30.20 in1022.7 mb 0.00 in0.0 mm 0.00 in0.0 mm 0.00 in0.0 mm
02:09 AM 12.9°F-10.6°C 9.5°F-12.5°C 86% Calm Calm -- 30.20 in1022.7 mb 0.00 in0.0 mm 0.00 in0.0 mm 0.00 in0.0 mm
02:14 AM 13.3°F-10.4°C 9.9°F-12.3°C 86% Calm Calm -- 30.20 in1022.7 mb 0.00 in0.0 mm 0.00 in0.0 mm 0.00 in0.0 mm
02:19 AM 13.3°F-10.4°C 9.9°F-12.3°C 86% Calm Calm -- 30.20 in1022.7 mb 0.00 in0.0 mm 0.00 in0.0 mm 0.00 in0.0 mm
02:24 AM 13.3°F-10.4°C 9.9°F-12.3°C 86% Calm Calm -- 30.20 in1022.7 mb 0.00 in0.0 mm 0.00 in0.0 mm 0.00 in0.0 mm
02:29 AM 12.9°F-10.6°C 9.3°F-12.6°C 85% Calm Calm -- 30.20 in1022.7 mb 0.00 in0.0 mm 0.00 in0.0 mm 0.00 in0.0 mm
02:34 AM 12.7°F-10.7°C 9.1°F-12.7°C 85% Calm Calm -- 30.20 in1022.7 mb 0.00 in0.0 mm 0.00 in0.0 mm 0.00 in0.0 mm
02:39 AM 12.4°F-10.9°C 8.8°F-12.9°C 85% Calm Calm -- 30.19 in1022.4 mb 0.00 in0.0 mm 0.00 in0.0 mm 0.00 in0.0 mm
02:44 AM 12.4°F-10.9°C 9.3°F-12.6°C 87% Calm Calm -- 30.19 in1022.4 mb 0.00 in0.0 mm 0.00 in0.0 mm 0.00 in0.0 mm
02:49 AM 12.4°F-10.9°C 9.0°F-12.8°C 86% Calm Calm -- 30.18 in1022.0 mb 0.00 in0.0 mm 0.00 in0.0 mm 0.00 in0.0 mm
02:54 AM 12.0°F-11.1°C 9.0°F-12.8°C 87% Calm Calm -- 30.19 in1022.4 mb 0.00 in0.0 mm 0.00 in0.0 mm 0.00 in0.0 mm
02:59 AM 11.8°F-11.2°C 8.8°F-12.9°C 87% Calm Calm -- 30.19 in1022.4 mb 0.00 in0.0 mm 0.00 in0.0 mm 0.00 in0.0 mm
03:04 AM 11.8°F-11.2°C 8.8°F-12.9°C 87% Calm Calm -- 30.19 in1022.4 mb 0.00 in0.0 mm 0.00 in0.0 mm 0.00 in0.0 mm
03:09 AM 11.7°F-11.3°C 8.6°F-13.0°C 87% Calm Calm -- 30.18 in1022.0 mb 0.00 in0.0 mm 0.00 in0.0 mm 0.00 in0.0 mm
03:14 AM 11.1°F-11.6°C 8.1°F-13.3°C 87% Calm Calm -- 30.18 in1022.0 mb 0.00 in0.0 mm 0.00 in0.0 mm 0.00 in0.0 mm
03:19 AM 10.9°F-11.7°C 7.9°F-13.4°C 87% Calm Calm -- 30.18 in1022.0 mb 0.00 in0.0 mm 0.00 in0.0 mm 0.00 in0.0 mm
03:24 AM 10.8°F-11.8°C 7.7°F-13.5°C 87% Calm Calm -- 30.18 in1022.0 mb 0.00 in0.0 mm 0.00 in0.0 mm 0.00 in0.0 mm
03:29 AM 10.6°F-11.9°C 7.7°F-13.5°C 88% Calm Calm -- 30.18 in1022.0 mb 0.00 in0.0 mm 0.00 in0.0 mm 0.00 in0.0 mm
03:34 AM 10.6°F-11.9°C 7.7°F-13.5°C 88% Calm Calm -- 30.17 in1021.7 mb 0.00 in0.0 mm 0.00 in0.0 mm 0.00 in0.0 mm
03:39 AM 10.4°F-12.0°C 7.5°F-13.6°C 88% Calm Calm -- 30.17 in1021.7 mb 0.00 in0.0 mm 0.00 in0.0 mm 0.00 in0.0 mm
03:44 AM 10.6°F-11.9°C 7.7°F-13.5°C 88% Calm Calm -- 30.17 in1021.7 mb 0.00 in0.0 mm 0.00 in0.0 mm 0.00 in0.0 mm
03:49 AM 10.4°F-12.0°C 7.5°F-13.6°C 88% Calm Calm -- 30.17 in1021.7 mb 0.00 in0.0 mm 0.00 in0.0 mm 0.00 in0.0 mm
03:54 AM 10.2°F-12.1°C 7.3°F-13.7°C 88% Calm Calm -- 30.17 in1021.7 mb 0.00 in0.0 mm 0.00 in0.0 mm 0.00 in0.0 mm
03:59 AM 10.2°F-12.1°C 7.7°F-13.5°C 89% Calm Calm -- 30.17 in1021.7 mb 0.00 in0.0 mm 0.00 in0.0 mm 0.00 in0.0 mm
04:04 AM 10.0°F-12.2°C 7.5°F-13.6°C 89% Calm Calm -- 30.16 in1021.3 mb 0.00 in0.0 mm 0.00 in0.0 mm 0.00 in0.0 mm
04:09 AM 10.4°F-12.0°C 8.1°F-13.3°C 90% Calm Calm -- 30.16 in1021.3 mb 0.00 in0.0 mm 0.00 in0.0 mm 0.00 in0.0 mm
04:14 AM 10.4°F-12.0°C 8.1°F-13.3°C 90% Calm Calm -- 30.16 in1021.3 mb 0.00 in0.0 mm 0.00 in0.0 mm 0.00 in0.0 mm
04:19 AM 10.6°F-11.9°C 8.2°F-13.2°C 90% Calm Calm -- 30.16 in1021.3 mb 0.00 in0.0 mm 0.00 in0.0 mm 0.00 in0.0 mm
04:24 AM 10.6°F-11.9°C 8.2°F-13.2°C 90% Calm Calm -- 30.16 in1021.3 mb 0.00 in0.0 mm 0.00 in0.0 mm 0.00 in0.0 mm
04:29 AM 10.8°F-11.8°C 8.4°F-13.1°C 90% Calm Calm -- 30.16 in1021.3 mb 0.00 in0.0 mm 0.00 in0.0 mm 0.00 in0.0 mm
04:34 AM 10.8°F-11.8°C 8.4°F-13.1°C 90% Calm Calm -- 30.16 in1021.3 mb 0.00 in0.0 mm 0.00 in0.0 mm 0.00 in0.0 mm
04:39 AM 10.9°F-11.7°C 8.6°F-13.0°C 90% Calm Calm -- 30.16 in1021.3 mb 0.00 in0.0 mm 0.00 in0.0 mm 0.00 in0.0 mm
04:44 AM 10.9°F-11.7°C 8.6°F-13.0°C 90% Calm Calm -- 30.16 in1021.3 mb 0.00 in0.0 mm 0.00 in0.0 mm 0.00 in0.0 mm
04:49 AM 10.9°F-11.7°C 8.6°F-13.0°C 90% Calm Calm -- 30.16 in1021.3 mb 0.00 in0.0 mm 0.00 in0.0 mm 0.00 in0.0 mm
04:54 AM 11.1°F-11.6°C 9.0°F-12.8°C 91% Calm Calm -- 30.16 in1021.3 mb 0.00 in0.0 mm 0.00 in0.0 mm 0.00 in0.0 mm
04:59 AM 11.5°F-11.4°C 9.3°F-12.6°C 91% Calm Calm -- 30.16 in1021.3 mb 0.00 in0.0 mm 0.00 in0.0 mm 0.00 in0.0 mm
05:04 AM 11.8°F-11.2°C 9.7°F-12.4°C 91% Calm Calm -- 30.16 in1021.3 mb 0.00 in0.0 mm 0.00 in0.0 mm 0.00 in0.0 mm
05:09 AM 12.4°F-10.9°C 10.2°F-12.1°C 91% Calm Calm -- 30.16 in1021.3 mb 0.00 in0.0 mm 0.00 in0.0 mm 0.00 in0.0 mm
05:14 AM 12.6°F-10.8°C 10.4°F-12.0°C 91% Calm Calm -- 30.16 in1021.3 mb 0.00 in0.0 mm 0.00 in0.0 mm 0.00 in0.0 mm
05:19 AM 12.7°F-10.7°C 10.6°F-11.9°C 91% Calm Calm -- 30.16 in1021.3 mb 0.00 in0.0 mm 0.00 in0.0 mm 0.00 in0.0 mm
05:24 AM 12.9°F-10.6°C 10.8°F-11.8°C 91% Calm Calm -- 30.17 in1021.7 mb 0.00 in0.0 mm 0.00 in0.0 mm 0.00 in0.0 mm
05:29 AM 13.3°F-10.4°C 11.1°F-11.6°C 91% Calm Calm -- 30.17 in1021.7 mb 0.00 in0.0 mm 0.00 in0.0 mm 0.00 in0.0 mm
05:34 AM 13.6°F-10.2°C 11.5°F-11.4°C 91% Calm Calm -- 30.17 in1021.7 mb 0.00 in0.0 mm 0.00 in0.0 mm 0.00 in0.0 mm
05:39 AM 14.2°F-9.9°C 11.8°F-11.2°C 90% Calm Calm -- 30.18 in1022.0 mb 0.00 in0.0 mm 0.00 in0.0 mm 0.00 in0.0 mm
05:44 AM 14.4°F-9.8°C 11.7°F-11.3°C 89% Calm Calm -- 30.18 in1022.0 mb 0.00 in0.0 mm 0.00 in0.0 mm 0.00 in0.0 mm
05:49 AM 14.4°F-9.8°C 11.7°F-11.3°C 89% Calm Calm -- 30.18 in1022.0 mb 0.00 in0.0 mm 0.00 in0.0 mm 0.00 in0.0 mm
05:54 AM 14.5°F-9.7°C 11.7°F-11.3°C 88% Calm Calm -- 30.18 in1022.0 mb 0.00 in0.0 mm 0.00 in0.0 mm 0.00 in0.0 mm
05:59 AM 14.7°F-9.6°C 11.8°F-11.2°C 88% Calm Calm -- 30.18 in1022.0 mb 0.00 in0.0 mm 0.00 in0.0 mm 0.00 in0.0 mm
06:04 AM 14.7°F-9.6°C 11.8°F-11.2°C 88% Calm Calm -- 30.18 in1022.0 mb 0.00 in0.0 mm 0.00 in0.0 mm 0.00 in0.0 mm
06:09 AM 14.7°F-9.6°C 11.5°F-11.4°C 87% Calm Calm -- 30.18 in1022.0 mb 0.00 in0.0 mm 0.00 in0.0 mm 0.00 in0.0 mm
06:14 AM 14.7°F-9.6°C 11.5°F-11.4°C 87% Calm Calm -- 30.18 in1022.0 mb 0.00 in0.0 mm 0.00 in0.0 mm 0.00 in0.0 mm
06:19 AM 14.5°F-9.7°C 11.3°F-11.5°C 87% Calm Calm -- 30.18 in1022.0 mb 0.00 in0.0 mm 0.00 in0.0 mm 0.00 in0.0 mm
06:24 AM 14.4°F-9.8°C 11.1°F-11.6°C 87% Calm Calm -- 30.18 in1022.0 mb 0.00 in0.0 mm 0.00 in0.0 mm 0.00 in0.0 mm
06:29 AM 14.4°F-9.8°C 11.1°F-11.6°C 87% Calm Calm -- 30.18 in1022.0 mb 0.00 in0.0 mm 0.00 in0.0 mm 0.00 in0.0 mm
06:34 AM 14.2°F-9.9°C 10.9°F-11.7°C 87% Calm Calm -- 30.17 in1021.7 mb 0.00 in0.0 mm 0.00 in0.0 mm 0.00 in0.0 mm
06:39 AM 14.2°F-9.9°C 10.9°F-11.7°C 87% Calm Calm -- 30.17 in1021.7 mb 0.00 in0.0 mm 0.00 in0.0 mm 0.00 in0.0 mm
06:44 AM 14.2°F-9.9°C 10.9°F-11.7°C 87% Calm Calm -- 30.17 in1021.7 mb 0.00 in0.0 mm 0.00 in0.0 mm 0.00 in0.0 mm
06:49 AM 14.0°F-10.0°C 10.9°F-11.7°C 87% Calm Calm -- 30.17 in1021.7 mb 0.00 in0.0 mm 0.00 in0.0 mm 0.00 in0.0 mm
06:54 AM 13.8°F-10.1°C 10.8°F-11.8°C 87% Calm Calm -- 30.17 in1021.7 mb 0.00 in0.0 mm 0.00 in0.0 mm 0.00 in0.0 mm
06:59 AM 13.8°F-10.1°C 10.9°F-11.7°C 88% Calm Calm -- 30.17 in1021.7 mb 0.00 in0.0 mm 0.00 in0.0 mm 0.00 in0.0 mm
07:04 AM 13.8°F-10.1°C 10.9°F-11.7°C 88% Calm Calm -- 30.16 in1021.3 mb 0.00 in0.0 mm 0.00 in0.0 mm 0.00 in0.0 mm
07:09 AM 14.0°F-10.0°C 11.1°F-11.6°C 88% Calm Calm -- 30.17 in1021.7 mb 0.00 in0.0 mm 0.00 in0.0 mm 0.00 in0.0 mm
07:14 AM 14.2°F-9.9°C 11.3°F-11.5°C 88% Calm Calm -- 30.17 in1021.7 mb 0.00 in0.0 mm 0.00 in0.0 mm 0.00 in0.0 mm
07:19 AM 14.4°F-9.8°C 11.5°F-11.4°C 88% Calm Calm -- 30.17 in1021.7 mb 0.00 in0.0 mm 0.00 in0.0 mm 0.00 in0.0 mm
07:24 AM 14.5°F-9.7°C 11.8°F-11.2°C 89% Calm Calm -- 30.16 in1021.3 mb 0.00 in0.0 mm 0.00 in0.0 mm 0.00 in0.0 mm
07:29 AM 14.9°F-9.5°C 12.2°F-11.0°C 89% Calm Calm -- 30.16 in1021.3 mb 0.00 in0.0 mm 0.00 in0.0 mm 0.00 in0.0 mm
07:34 AM 15.4°F-9.2°C 12.6°F-10.8°C 88% Calm Calm 1.0 mph1.6 kmh 30.15 in1021.0 mb 0.00 in0.0 mm 0.00 in0.0 mm 0.00 in0.0 mm
07:39 AM 15.8°F-9.0°C 12.6°F-10.8°C 87% Calm Calm 0.9 mph1.4 kmh 30.15 in1021.0 mb 0.00 in0.0 mm 0.00 in0.0 mm 0.00 in0.0 mm
07:44 AM 16.2°F-8.8°C 12.9°F-10.6°C 87% Calm Calm -- 30.15 in1021.0 mb 0.00 in0.0 mm 0.00 in0.0 mm 0.00 in0.0 mm
07:49 AM 16.5°F-8.6°C 13.1°F-10.5°C 86% Calm Calm 0.9 mph1.4 kmh 30.15 in1021.0 mb 0.00 in0.0 mm 0.00 in0.0 mm 0.00 in0.0 mm
07:54 AM 17.2°F-8.2°C 13.5°F-10.3°C 85% Calm Calm -- 30.15 in1021.0 mb 0.00 in0.0 mm 0.00 in0.0 mm 0.00 in0.0 mm
07:59 AM 18.0°F-7.8°C 14.0°F-10.0°C 84% Calm Calm 0.9 mph1.4 kmh 30.15 in1021.0 mb 0.00 in0.0 mm 0.00 in0.0 mm 0.00 in0.0 mm
08:04 AM 18.7°F-7.4°C 14.2°F-9.9°C 82% Calm Calm 2.0 mph3.2 kmh 30.15 in1021.0 mb 0.00 in0.0 mm 0.00 in0.0 mm 0.00 in0.0 mm
08:09 AM 19.2°F-7.1°C 14.0°F-10.0°C 80% 0.9 mph SSE1.4 kmh SSE 4.0 mph6.4 kmh 30.16 in1021.3 mb 0.00 in0.0 mm 0.00 in0.0 mm 0.00 in0.0 mm
08:14 AM 19.6°F-6.9°C 14.2°F-9.9°C 79% 0.9 mph SE1.4 kmh SE 2.9 mph4.7 kmh 30.15 in1021.0 mb 0.00 in0.0 mm 0.00 in0.0 mm 0.00 in0.0 mm
08:19 AM 19.9°F-6.7°C 14.2°F-9.9°C 78% 0.9 mph SE1.4 kmh SE 2.0 mph3.2 kmh 30.15 in1021.0 mb 0.00 in0.0 mm 0.00 in0.0 mm 0.00 in0.0 mm
08:24 AM 20.3°F-6.5°C 14.2°F-9.9°C 77% 0.9 mph ESE1.4 kmh ESE 2.0 mph3.2 kmh 30.15 in1021.0 mb 0.00 in0.0 mm 0.00 in0.0 mm 0.00 in0.0 mm
08:29 AM 20.5°F-6.4°C 14.2°F-9.9°C 76% 0.9 mph SE1.4 kmh SE 4.0 mph6.4 kmh 30.15 in1021.0 mb 0.00 in0.0 mm 0.00 in0.0 mm 0.00 in0.0 mm
08:34 AM 20.5°F-6.4°C 14.2°F-9.9°C 76% 2.0 mph SE3.2 kmh SE 4.0 mph6.4 kmh 30.16 in1021.3 mb 0.00 in0.0 mm 0.00 in0.0 mm 0.00 in0.0 mm
08:39 AM 20.8°F-6.2°C 14.5°F-9.7°C 76% 0.9 mph SE1.4 kmh SE 2.9 mph4.7 kmh 30.16 in1021.3 mb 0.00 in0.0 mm 0.00 in0.0 mm 0.00 in0.0 mm
08:44 AM 20.8°F-6.2°C 14.5°F-9.7°C 76% 0.9 mph ESE1.4 kmh ESE 5.0 mph8.0 kmh 30.16 in1021.3 mb 0.00 in0.0 mm 0.00 in0.0 mm 0.00 in0.0 mm
08:49 AM 20.8°F-6.2°C 14.5°F-9.7°C 76% 0.9 mph SE1.4 kmh SE 4.0 mph6.4 kmh 30.16 in1021.3 mb 0.00 in0.0 mm 0.00 in0.0 mm 0.00 in0.0 mm
08:54 AM 21.2°F-6.0°C 14.5°F-9.7°C 75% 0.9 mph SE1.4 kmh SE 0.9 mph1.4 kmh 30.16 in1021.3 mb 0.00 in0.0 mm 0.00 in0.0 mm 0.00 in0.0 mm
08:59 AM 21.4°F-5.9°C 14.7°F-9.6°C 75% 0.9 mph ESE1.4 kmh ESE 4.0 mph6.4 kmh 30.16 in1021.3 mb 0.00 in0.0 mm 0.00 in0.0 mm 0.00 in0.0 mm
09:04 AM 21.4°F-5.9°C 14.7°F-9.6°C 75% 0.9 mph ESE1.4 kmh ESE 2.0 mph3.2 kmh 30.16 in1021.3 mb 0.00 in0.0 mm 0.00 in0.0 mm 0.00 in0.0 mm
09:09 AM 21.7°F-5.7°C 15.1°F-9.4°C 75% 0.9 mph SSE1.4 kmh SSE 4.0 mph6.4 kmh 30.16 in1021.3 mb 0.00 in0.0 mm 0.00 in0.0 mm 0.00 in0.0 mm
09:14 AM 22.1°F-5.5°C 15.1°F-9.4°C 74% 0.9 mph SSE1.4 kmh SSE 2.9 mph4.7 kmh 30.17 in1021.7 mb 0.00 in0.0 mm 0.00 in0.0 mm 0.00 in0.0 mm
09:19 AM 22.6°F-5.2°C 14.9°F-9.5°C 72% 0.9 mph SSE1.4 kmh SSE 2.9 mph4.7 kmh 30.16 in1021.3 mb 0.00 in0.0 mm 0.00 in0.0 mm 0.00 in0.0 mm
09:24 AM 23.2°F-4.9°C 15.3°F-9.3°C 71% 0.9 mph SSE1.4 kmh SSE 4.0 mph6.4 kmh 30.16 in1021.3 mb 0.00 in0.0 mm 0.00 in0.0 mm 0.00 in0.0 mm
09:29 AM 23.5°F-4.7°C 14.9°F-9.5°C 69% 2.0 mph SSE3.2 kmh SSE 4.0 mph6.4 kmh 30.16 in1021.3 mb 0.00 in0.0 mm 0.00 in0.0 mm 0.00 in0.0 mm
09:34 AM 23.5°F-4.7°C 14.9°F-9.5°C 69% 0.9 mph SE1.4 kmh SE 4.0 mph6.4 kmh 30.15 in1021.0 mb 0.00 in0.0 mm 0.00 in0.0 mm 0.00 in0.0 mm
09:39 AM 23.7°F-4.6°C 15.1°F-9.4°C 69% 2.0 mph SE3.2 kmh SE 6.0 mph9.7 kmh 30.14 in1020.7 mb 0.00 in0.0 mm 0.00 in0.0 mm 0.00 in0.0 mm
09:44 AM 24.6°F-4.1°C 15.6°F-9.1°C 68% 2.0 mph SSE3.2 kmh SSE 2.9 mph4.7 kmh 30.13 in1020.3 mb 0.00 in0.0 mm 0.00 in0.0 mm 0.00 in0.0 mm
09:49 AM 25.3°F-3.7°C 15.6°F-9.1°C 66% 2.0 mph E3.2 kmh E 5.0 mph8.0 kmh 30.14 in1020.7 mb 0.00 in0.0 mm 0.00 in0.0 mm 0.00 in0.0 mm
09:54 AM 26.2°F-3.2°C 16.5°F-8.6°C 66% 2.0 mph S3.2 kmh S 4.0 mph6.4 kmh 30.14 in1020.7 mb 0.00 in0.0 mm 0.00 in0.0 mm 0.00 in0.0 mm
09:59 AM 26.6°F-3.0°C 15.6°F-9.1°C 63% 2.0 mph S3.2 kmh S 7.0 mph11.3 kmh 30.14 in1020.7 mb 0.00 in0.0 mm 0.00 in0.0 mm 0.00 in0.0 mm
10:04 AM 26.8°F-2.9°C 15.8°F-9.0°C 63% 2.9 mph SE4.7 kmh SE 4.9 mph7.9 kmh 30.13 in1020.3 mb 0.00 in0.0 mm 0.00 in0.0 mm 0.00 in0.0 mm
10:09 AM 27.0°F-2.8°C 15.6°F-9.1°C 62% 2.0 mph SE3.2 kmh SE 4.0 mph6.4 kmh 30.14 in1020.7 mb 0.00 in0.0 mm 0.00 in0.0 mm 0.00 in0.0 mm
10:14 AM 27.0°F-2.8°C 16.0°F-8.9°C 63% 2.0 mph S3.2 kmh S 5.0 mph8.0 kmh 30.14 in1020.7 mb 0.00 in0.0 mm 0.00 in0.0 mm 0.00 in0.0 mm
10:19 AM 27.1°F-2.7°C 15.8°F-9.0°C 62% 2.0 mph SE3.2 kmh SE 4.0 mph6.4 kmh 30.14 in1020.7 mb 0.00 in0.0 mm 0.00 in0.0 mm 0.00 in0.0 mm
10:24 AM 27.5°F-2.5°C 16.2°F-8.8°C 62% 2.0 mph SSE3.2 kmh SSE 6.0 mph9.7 kmh 30.13 in1020.3 mb 0.00 in0.0 mm 0.00 in0.0 mm 0.00 in0.0 mm
10:29 AM 27.7°F-2.4°C 16.3°F-8.7°C 62% 2.0 mph SW3.2 kmh SW 4.9 mph7.9 kmh 30.13 in1020.3 mb 0.00 in0.0 mm 0.00 in0.0 mm 0.00 in0.0 mm
10:34 AM 27.9°F-2.3°C 16.5°F-8.6°C 62% 2.0 mph SSE3.2 kmh SSE 6.0 mph9.7 kmh 30.14 in1020.7 mb 0.00 in0.0 mm 0.00 in0.0 mm 0.00 in0.0 mm
10:39 AM 28.2°F-2.1°C 17.2°F-8.2°C 63% 2.0 mph SSE3.2 kmh SSE 6.0 mph9.7 kmh 30.13 in1020.3 mb 0.00 in0.0 mm 0.00 in0.0 mm 0.00 in0.0 mm
10:44 AM 28.8°F-1.8°C 17.1°F-8.3°C 61% 2.0 mph S3.2 kmh S 7.0 mph11.3 kmh 30.13 in1020.3 mb 0.00 in0.0 mm 0.00 in0.0 mm 0.00 in0.0 mm
10:49 AM 28.9°F-1.7°C 16.9°F-8.4°C 60% 2.0 mph SW3.2 kmh SW 6.0 mph9.7 kmh 30.14 in1020.7 mb 0.00 in0.0 mm 0.00 in0.0 mm 0.00 in0.0 mm
10:54 AM 28.9°F-1.7°C 17.2°F-8.2°C 61% 2.0 mph S3.2 kmh S 4.0 mph6.4 kmh 30.15 in1021.0 mb 0.00 in0.0 mm 0.00 in0.0 mm 0.00 in0.0 mm
10:59 AM 29.1°F-1.6°C 16.9°F-8.4°C 60% 2.0 mph SSW3.2 kmh SSW 5.0 mph8.0 kmh 30.14 in1020.7 mb 0.00 in0.0 mm 0.00 in0.0 mm 0.00 in0.0 mm
11:04 AM 29.1°F-1.6°C 17.4°F-8.1°C 61% 0.9 mph S1.4 kmh S 2.0 mph3.2 kmh 30.15 in1021.0 mb 0.00 in0.0 mm 0.00 in0.0 mm 0.00 in0.0 mm
11:09 AM 29.5°F-1.4°C 17.2°F-8.2°C 60% 0.9 mph S1.4 kmh S 5.0 mph8.0 kmh 30.15 in1021.0 mb 0.00 in0.0 mm 0.00 in0.0 mm 0.00 in0.0 mm
11:14 AM 29.3°F-1.5°C 17.1°F-8.3°C 60% 0.9 mph WSW1.4 kmh WSW 2.9 mph4.7 kmh 30.16 in1021.3 mb 0.00 in0.0 mm 0.00 in0.0 mm 0.00 in0.0 mm
11:19 AM 29.5°F-1.4°C 17.8°F-7.9°C 61% 0.9 mph SSW1.4 kmh SSW 2.0 mph3.2 kmh 30.16 in1021.3 mb 0.00 in0.0 mm 0.00 in0.0 mm 0.00 in0.0 mm
11:24 AM 29.8°F-1.2°C 17.6°F-8.0°C 60% 0.9 mph S1.4 kmh S 5.0 mph8.0 kmh 30.17 in1021.7 mb 0.00 in0.0 mm 0.00 in0.0 mm 0.00 in0.0 mm
11:29 AM 29.8°F-1.2°C 16.9°F-8.4°C 58% 2.0 mph SW3.2 kmh SW 2.9 mph4.7 kmh 30.17 in1021.7 mb 0.00 in0.0 mm 0.00 in0.0 mm 0.00 in0.0 mm
11:34 AM 30.2°F-1.0°C 17.6°F-8.0°C 59% 0.9 mph WSW1.4 kmh WSW 4.0 mph6.4 kmh 30.17 in1021.7 mb 0.00 in0.0 mm 0.00 in0.0 mm 0.00 in0.0 mm
11:39 AM 30.2°F-1.0°C 17.6°F-8.0°C 59% 0.9 mph SSE1.4 kmh SSE 2.9 mph4.7 kmh 30.16 in1021.3 mb 0.00 in0.0 mm 0.00 in0.0 mm 0.00 in0.0 mm
11:44 AM 31.1°F-0.5°C 18.9°F-7.3°C 60% 0.9 mph SW1.4 kmh SW 2.0 mph3.2 kmh 30.16 in1021.3 mb 0.00 in0.0 mm 0.00 in0.0 mm 0.00 in0.0 mm
11:49 AM 31.8°F-0.1°C 18.0°F-7.8°C 56% 0.9 mph SE1.4 kmh SE 4.0 mph6.4 kmh 30.16 in1021.3 mb 0.00 in0.0 mm 0.00 in0.0 mm 0.00 in0.0 mm
11:54 AM 32.2°F0.1°C 18.3°F-7.6°C 56% 0.9 mph S1.4 kmh S 5.0 mph8.0 kmh 30.16 in1021.3 mb 0.00 in0.0 mm 0.00 in0.0 mm 0.00 in0.0 mm
11:59 AM 32.0°F0.0°C 18.1°F-7.7°C 56% 2.0 mph SW3.2 kmh SW 4.0 mph6.4 kmh 30.15 in1021.0 mb 0.00 in0.0 mm 0.00 in0.0 mm 0.00 in0.0 mm
12:04 PM 31.5°F-0.3°C 18.0°F-7.8°C 57% 0.9 mph SSE1.4 kmh SSE 2.9 mph4.7 kmh 30.16 in1021.3 mb 0.00 in0.0 mm 0.00 in0.0 mm 0.00 in0.0 mm
12:09 PM 31.3°F-0.4°C 17.4°F-8.1°C 56% 0.9 mph S1.4 kmh S 4.0 mph6.4 kmh 30.15 in1021.0 mb 0.00 in0.0 mm 0.00 in0.0 mm 0.00 in0.0 mm
12:14 PM 31.3°F-0.4°C 17.8°F-7.9°C 57% 2.0 mph SW3.2 kmh SW 4.0 mph6.4 kmh 30.15 in1021.0 mb 0.00 in0.0 mm 0.00 in0.0 mm 0.00 in0.0 mm
12:19 PM 31.1°F-0.5°C 17.2°F-8.2°C 56% 2.0 mph SSE3.2 kmh SSE 6.0 mph9.7 kmh 30.15 in1021.0 mb 0.00 in0.0 mm 0.00 in0.0 mm 0.00 in0.0 mm
12:25 PM 30.7°F-0.7°C 17.8°F-7.9°C 58% 2.0 mph SW3.2 kmh SW 4.0 mph6.4 kmh 30.15 in1021.0 mb 0.00 in0.0 mm 0.00 in0.0 mm 0.00 in0.0 mm
12:30 PM 30.7°F-0.7°C 17.8°F-7.9°C 58% 2.0 mph SSW3.2 kmh SSW 4.0 mph6.4 kmh 30.15 in1021.0 mb 0.00 in0.0 mm 0.00 in0.0 mm 0.00 in0.0 mm
12:35 PM 30.9°F-0.6°C 18.0°F-7.8°C 58% 2.0 mph SW3.2 kmh SW 4.0 mph6.4 kmh 30.14 in1020.7 mb 0.00 in0.0 mm 0.00 in0.0 mm 0.00 in0.0 mm
12:40 PM 31.3°F-0.4°C 18.7°F-7.4°C 59% 0.9 mph SSW1.4 kmh SSW 2.0 mph3.2 kmh 30.14 in1020.7 mb 0.00 in0.0 mm 0.00 in0.0 mm 0.00 in0.0 mm
12:45 PM 30.9°F-0.6°C 17.4°F-8.1°C 57% 2.0 mph S3.2 kmh S 5.0 mph8.0 kmh 30.13 in1020.3 mb 0.00 in0.0 mm 0.00 in0.0 mm 0.00 in0.0 mm
12:50 PM 30.7°F-0.7°C 18.1°F-7.7°C 59% 0.9 mph SSW1.4 kmh SSW 2.0 mph3.2 kmh 30.13 in1020.3 mb 0.00 in0.0 mm 0.00 in0.0 mm 0.00 in0.0 mm
12:55 PM 30.9°F-0.6°C 17.4°F-8.1°C 57% Calm Calm 2.0 mph3.2 kmh 30.13 in1020.3 mb 0.00 in0.0 mm 0.00 in0.0 mm 0.00 in0.0 mm
01:00 PM 30.9°F-0.6°C 17.4°F-8.1°C 57% 0.9 mph SW1.4 kmh SW 4.0 mph6.4 kmh 30.13 in1020.3 mb 0.00 in0.0 mm 0.00 in0.0 mm 0.00 in0.0 mm
01:05 PM 30.9°F-0.6°C 18.0°F-7.8°C 58% 0.9 mph WSW1.4 kmh WSW 2.9 mph4.7 kmh 30.13 in1020.3 mb 0.00 in0.0 mm 0.00 in0.0 mm 0.00 in0.0 mm
01:10 PM 31.3°F-0.4°C 17.8°F-7.9°C 57% 0.9 mph SSW1.4 kmh SSW 4.0 mph6.4 kmh 30.12 in1020.0 mb 0.00 in0.0 mm 0.00 in0.0 mm 0.00 in0.0 mm
01:15 PM 31.3°F-0.4°C 17.4°F-8.1°C 56% 2.0 mph S3.2 kmh S 4.0 mph6.4 kmh 30.12 in1020.0 mb 0.00 in0.0 mm 0.00 in0.0 mm 0.00 in0.0 mm
01:20 PM 31.6°F-0.2°C 18.5°F-7.5°C 58% 2.0 mph SW3.2 kmh SW 7.0 mph11.3 kmh 30.12 in1020.0 mb 0.00 in0.0 mm 0.00 in0.0 mm 0.00 in0.0 mm
01:25 PM 31.6°F-0.2°C 18.1°F-7.7°C 57% 0.9 mph SW1.4 kmh SW 2.9 mph4.7 kmh 30.11 in1019.6 mb 0.00 in0.0 mm 0.00 in0.0 mm 0.00 in0.0 mm
01:30 PM 31.6°F-0.2°C 19.0°F-7.2°C 59% 0.9 mph SSW1.4 kmh SSW 2.0 mph3.2 kmh 30.11 in1019.6 mb 0.00 in0.0 mm 0.00 in0.0 mm 0.00 in0.0 mm
01:35 PM 31.8°F-0.1°C 18.7°F-7.4°C 58% 0.9 mph SW1.4 kmh SW 4.0 mph6.4 kmh 30.10 in1019.3 mb 0.00 in0.0 mm 0.00 in0.0 mm 0.00 in0.0 mm
01:40 PM 31.8°F-0.1°C 18.7°F-7.4°C 58% 0.9 mph S1.4 kmh S 2.9 mph4.7 kmh 30.11 in1019.6 mb 0.00 in0.0 mm 0.00 in0.0 mm 0.00 in0.0 mm
01:45 PM 31.8°F-0.1°C 18.3°F-7.6°C 57% 0.9 mph W1.4 kmh W 2.9 mph4.7 kmh 30.10 in1019.3 mb 0.00 in0.0 mm 0.00 in0.0 mm 0.00 in0.0 mm
01:50 PM 31.5°F-0.3°C 17.6°F-8.0°C 56% 0.9 mph SSE1.4 kmh SSE 7.0 mph11.3 kmh 30.11 in1019.6 mb 0.00 in0.0 mm 0.00 in0.0 mm 0.00 in0.0 mm
01:55 PM 31.3°F-0.4°C 17.8°F-7.9°C 57% 0.9 mph SE1.4 kmh SE 4.0 mph6.4 kmh 30.11 in1019.6 mb 0.00 in0.0 mm 0.00 in0.0 mm 0.00 in0.0 mm
02:00 PM 31.3°F-0.4°C 18.1°F-7.7°C 58% 0.9 mph SW1.4 kmh SW 2.0 mph3.2 kmh 30.11 in1019.6 mb 0.00 in0.0 mm 0.00 in0.0 mm 0.00 in0.0 mm
02:05 PM 31.5°F-0.3°C 18.3°F-7.6°C 58% Calm Calm 2.0 mph3.2 kmh 30.11 in1019.6 mb 0.00 in0.0 mm 0.00 in0.0 mm 0.00 in0.0 mm
02:10 PM 32.0°F0.0°C 18.9°F-7.3°C 58% Calm Calm 2.0 mph3.2 kmh 30.12 in1020.0 mb 0.00 in0.0 mm 0.00 in0.0 mm 0.00 in0.0 mm
02:15 PM 32.2°F0.1°C 18.3°F-7.6°C 56% 0.9 mph W1.4 kmh W 4.0 mph6.4 kmh 30.11 in1019.6 mb 0.00 in0.0 mm 0.00 in0.0 mm 0.00 in0.0 mm
02:20 PM 32.9°F0.5°C 18.9°F-7.3°C 56% 0.9 mph S1.4 kmh S 4.0 mph6.4 kmh 30.11 in1019.6 mb 0.00 in0.0 mm 0.00 in0.0 mm 0.00 in0.0 mm
02:25 PM 33.3°F0.7°C 18.9°F-7.3°C 55% 0.9 mph SW1.4 kmh SW 4.0 mph6.4 kmh 30.11 in1019.6 mb 0.00 in0.0 mm 0.00 in0.0 mm 0.00 in0.0 mm
02:30 PM 33.4°F0.8°C 19.4°F-7.0°C 56% 0.9 mph S1.4 kmh S 4.0 mph6.4 kmh 30.11 in1019.6 mb 0.01 in0.3 mm 0.12 in3.0 mm 0.01 in0.3 mm
02:35 PM 33.8°F1.0°C 18.9°F-7.3°C 54% 0.9 mph S1.4 kmh S 2.0 mph3.2 kmh 30.10 in1019.3 mb 0.01 in0.3 mm 0.00 in0.0 mm 0.01 in0.3 mm
02:40 PM 33.6°F0.9°C 18.7°F-7.4°C 54% 0.9 mph SSW1.4 kmh SSW 4.0 mph6.4 kmh 30.11 in1019.6 mb 0.01 in0.3 mm 0.00 in0.0 mm 0.01 in0.3 mm
02:45 PM 33.6°F0.9°C 18.7°F-7.4°C 54% 0.9 mph SSW1.4 kmh SSW 4.0 mph6.4 kmh 30.11 in1019.6 mb 0.01 in0.3 mm 0.00 in0.0 mm 0.01 in0.3 mm
02:50 PM 34.0°F1.1°C 19.0°F-7.2°C 54% 0.9 mph WSW1.4 kmh WSW 2.9 mph4.7 kmh 30.11 in1019.6 mb 0.01 in0.3 mm 0.00 in0.0 mm 0.01 in0.3 mm
02:55 PM 34.0°F1.1°C 19.0°F-7.2°C 54% 0.9 mph WSW1.4 kmh WSW 2.0 mph3.2 kmh 30.10 in1019.3 mb 0.01 in0.3 mm 0.00 in0.0 mm 0.01 in0.3 mm
03:00 PM 34.0°F1.1°C 19.6°F-6.9°C 55% 0.9 mph SW1.4 kmh SW 2.0 mph3.2 kmh 30.10 in1019.3 mb 0.01 in0.3 mm 0.00 in0.0 mm 0.01 in0.3 mm
03:05 PM 33.4°F0.8°C 18.5°F-7.5°C 54% 0.9 mph SSW1.4 kmh SSW 4.0 mph6.4 kmh 30.10 in1019.3 mb 0.01 in0.3 mm 0.00 in0.0 mm 0.01 in0.3 mm
03:10 PM 33.1°F0.6°C 19.0°F-7.2°C 56% 0.9 mph S1.4 kmh S 4.0 mph6.4 kmh 30.10 in1019.3 mb 0.01 in0.3 mm 0.00 in0.0 mm 0.01 in0.3 mm
03:15 PM 32.9°F0.5°C 19.4°F-7.0°C 57% 0.9 mph SSW1.4 kmh SSW 5.0 mph8.0 kmh 30.10 in1019.3 mb 0.01 in0.3 mm 0.00 in0.0 mm 0.01 in0.3 mm
03:20 PM 32.9°F0.5°C 19.4°F-7.0°C 57% 0.9 mph SSW1.4 kmh SSW 2.9 mph4.7 kmh 30.10 in1019.3 mb 0.01 in0.3 mm 0.00 in0.0 mm 0.01 in0.3 mm
03:25 PM 32.5°F0.3°C 19.0°F-7.2°C 57% 0.9 mph WSW1.4 kmh WSW 2.9 mph4.7 kmh 30.10 in1019.3 mb 0.01 in0.3 mm 0.00 in0.0 mm 0.01 in0.3 mm
03:30 PM 32.4°F0.2°C 19.2°F-7.1°C 58% 2.0 mph SW3.2 kmh SW 5.0 mph8.0 kmh 30.10 in1019.3 mb 0.00 in0.0 mm 0.00 in0.0 mm 0.01 in0.3 mm
03:35 PM 32.2°F0.1°C 19.0°F-7.2°C 58% 2.0 mph SSW3.2 kmh SSW 2.9 mph4.7 kmh 30.10 in1019.3 mb 0.00 in0.0 mm 0.00 in0.0 mm 0.01 in0.3 mm
03:40 PM 32.0°F0.0°C 18.9°F-7.3°C 58% 2.0 mph S3.2 kmh S 4.0 mph6.4 kmh 30.10 in1019.3 mb 0.00 in0.0 mm 0.00 in0.0 mm 0.01 in0.3 mm
03:45 PM 31.8°F-0.1°C 19.0°F-7.2°C 59% 2.0 mph SSW3.2 kmh SSW 6.0 mph9.7 kmh 30.10 in1019.3 mb 0.00 in0.0 mm 0.00 in0.0 mm 0.01 in0.3 mm
03:50 PM 31.8°F-0.1°C 19.0°F-7.2°C 59% 2.0 mph SSW3.2 kmh SSW 4.0 mph6.4 kmh 30.10 in1019.3 mb 0.00 in0.0 mm 0.00 in0.0 mm 0.01 in0.3 mm
03:55 PM 31.6°F-0.2°C 19.8°F-6.8°C 61% 0.9 mph SSE1.4 kmh SSE 6.0 mph9.7 kmh 30.10 in1019.3 mb 0.00 in0.0 mm 0.00 in0.0 mm 0.01 in0.3 mm
04:00 PM 31.6°F-0.2°C 19.8°F-6.8°C 61% 2.0 mph WSW3.2 kmh WSW 6.0 mph9.7 kmh 30.10 in1019.3 mb 0.00 in0.0 mm 0.00 in0.0 mm 0.01 in0.3 mm
04:05 PM 31.5°F-0.3°C 20.3°F-6.5°C 63% 2.0 mph S3.2 kmh S 4.0 mph6.4 kmh 30.10 in1019.3 mb 0.00 in0.0 mm 0.00 in0.0 mm 0.01 in0.3 mm
04:10 PM 31.5°F-0.3°C 20.7°F-6.3°C 64% 2.0 mph SW3.2 kmh SW 6.0 mph9.7 kmh 30.11 in1019.6 mb 0.00 in0.0 mm 0.00 in0.0 mm 0.01 in0.3 mm
04:15 PM 31.5°F-0.3°C 20.7°F-6.3°C 64% 2.0 mph S3.2 kmh S 7.0 mph11.3 kmh 30.11 in1019.6 mb 0.00 in0.0 mm 0.00 in0.0 mm 0.01 in0.3 mm
04:20 PM 31.3°F-0.4°C 20.5°F-6.4°C 64% 2.0 mph SW3.2 kmh SW 7.0 mph11.3 kmh 30.11 in1019.6 mb 0.00 in0.0 mm 0.00 in0.0 mm 0.01 in0.3 mm
04:25 PM 31.6°F-0.2°C 21.6°F-5.8°C 66% 0.9 mph S1.4 kmh S 2.9 mph4.7 kmh 30.11 in1019.6 mb 0.00 in0.0 mm 0.00 in0.0 mm 0.01 in0.3 mm
04:30 PM 31.6°F-0.2°C 21.6°F-5.8°C 66% 0.9 mph WSW1.4 kmh WSW 4.0 mph6.4 kmh 30.11 in1019.6 mb 0.00 in0.0 mm 0.00 in0.0 mm 0.01 in0.3 mm
04:35 PM 32.2°F0.1°C 22.1°F-5.5°C 66% 0.9 mph WSW1.4 kmh WSW 2.9 mph4.7 kmh 30.11 in1019.6 mb 0.00 in0.0 mm 0.00 in0.0 mm 0.01 in0.3 mm
04:40 PM 32.4°F0.2°C 21.2°F-6.0°C 63% 0.9 mph WSW1.4 kmh WSW 4.0 mph6.4 kmh 30.11 in1019.6 mb 0.00 in0.0 mm 0.00 in0.0 mm 0.01 in0.3 mm
04:45 PM 32.0°F0.0°C 20.8°F-6.2°C 63% 0.9 mph S1.4 kmh S 2.9 mph4.7 kmh 30.11 in1019.6 mb 0.00 in0.0 mm 0.00 in0.0 mm 0.01 in0.3 mm
04:50 PM 31.8°F-0.1°C 21.0°F-6.1°C 64% 0.9 mph S1.4 kmh S 2.9 mph4.7 kmh 30.11 in1019.6 mb 0.00 in0.0 mm 0.00 in0.0 mm 0.01 in0.3 mm
04:55 PM 31.5°F-0.3°C 21.0°F-6.1°C 65% Calm Calm 2.0 mph3.2 kmh 30.11 in1019.6 mb 0.00 in0.0 mm 0.00 in0.0 mm 0.01 in0.3 mm
05:00 PM 31.3°F-0.4°C 21.2°F-6.0°C 66% 0.9 mph SE1.4 kmh SE 4.0 mph6.4 kmh 30.11 in1019.6 mb 0.00 in0.0 mm 0.00 in0.0 mm 0.01 in0.3 mm
05:05 PM 31.1°F-0.5°C 21.4°F-5.9°C 67% Calm Calm 2.0 mph3.2 kmh 30.11 in1019.6 mb 0.00 in0.0 mm 0.00 in0.0 mm 0.01 in0.3 mm
05:10 PM 30.9°F-0.6°C 21.6°F-5.8°C 68% Calm Calm 2.0 mph3.2 kmh 30.11 in1019.6 mb 0.00 in0.0 mm 0.00 in0.0 mm 0.01 in0.3 mm
05:15 PM 30.6°F-0.8°C 21.2°F-6.0°C 68% Calm Calm 2.0 mph3.2 kmh 30.11 in1019.6 mb 0.00 in0.0 mm 0.00 in0.0 mm 0.01 in0.3 mm
05:20 PM 30.4°F-0.9°C 21.4°F-5.9°C 69% Calm Calm 0.9 mph1.4 kmh 30.12 in1020.0 mb 0.00 in0.0 mm 0.00 in0.0 mm 0.01 in0.3 mm
05:25 PM 30.4°F-0.9°C 21.4°F-5.9°C 69% Calm Calm 2.0 mph3.2 kmh 30.13 in1020.3 mb 0.00 in0.0 mm 0.00 in0.0 mm 0.01 in0.3 mm
05:30 PM 30.0°F-1.1°C 21.4°F-5.9°C 70% Calm Calm 0.9 mph1.4 kmh 30.13 in1020.3 mb 0.00 in0.0 mm 0.00 in0.0 mm 0.01 in0.3 mm
05:35 PM 30.0°F-1.1°C 21.4°F-5.9°C 70% Calm Calm 3.0 mph4.8 kmh 30.14 in1020.7 mb 0.00 in0.0 mm 0.00 in0.0 mm 0.01 in0.3 mm
05:40 PM 29.8°F-1.2°C 21.2°F-6.0°C 70% 0.9 mph SW1.4 kmh SW 4.0 mph6.4 kmh 30.14 in1020.7 mb 0.00 in0.0 mm 0.00 in0.0 mm 0.01 in0.3 mm
05:45 PM 29.7°F-1.3°C 21.0°F-6.1°C 70% 0.9 mph SW1.4 kmh SW 4.0 mph6.4 kmh 30.15 in1021.0 mb 0.00 in0.0 mm 0.00 in0.0 mm 0.01 in0.3 mm
05:50 PM 29.5°F-1.4°C 20.8°F-6.2°C 70% 0.9 mph W1.4 kmh W 2.9 mph4.7 kmh 30.15 in1021.0 mb 0.00 in0.0 mm 0.00 in0.0 mm 0.01 in0.3 mm
05:55 PM 29.5°F-1.4°C 20.8°F-6.2°C 70% 0.9 mph W1.4 kmh W 2.0 mph3.2 kmh 30.15 in1021.0 mb 0.00 in0.0 mm 0.00 in0.0 mm 0.01 in0.3 mm
06:00 PM 29.1°F-1.6°C 20.5°F-6.4°C 70% Calm Calm 2.0 mph3.2 kmh 30.15 in1021.0 mb 0.00 in0.0 mm 0.00 in0.0 mm 0.01 in0.3 mm
06:05 PM 29.1°F-1.6°C 20.5°F-6.4°C 70% Calm Calm 3.0 mph4.8 kmh 30.15 in1021.0 mb 0.00 in0.0 mm 0.00 in0.0 mm 0.01 in0.3 mm
06:10 PM 28.9°F-1.7°C 20.5°F-6.4°C 70% Calm Calm 2.9 mph4.7 kmh 30.16 in1021.3 mb 0.00 in0.0 mm 0.00 in0.0 mm 0.01 in0.3 mm
06:15 PM 28.9°F-1.7°C 20.5°F-6.4°C 70% 0.9 mph WSW1.4 kmh WSW 4.0 mph6.4 kmh 30.16 in1021.3 mb 0.00 in0.0 mm 0.00 in0.0 mm 0.01 in0.3 mm
06:20 PM 28.8°F-1.8°C 20.3°F-6.5°C 70% Calm Calm 2.0 mph3.2 kmh 30.16 in1021.3 mb 0.00 in0.0 mm 0.00 in0.0 mm 0.01 in0.3 mm
06:25 PM 28.8°F-1.8°C 20.3°F-6.5°C 70% 0.9 mph WSW1.4 kmh WSW 5.0 mph8.0 kmh 30.16 in1021.3 mb 0.00 in0.0 mm 0.00 in0.0 mm 0.01 in0.3 mm
06:30 PM 28.6°F-1.9°C 20.3°F-6.5°C 71% Calm Calm 0.9 mph1.4 kmh 30.16 in1021.3 mb 0.00 in0.0 mm 0.00 in0.0 mm 0.01 in0.3 mm
06:35 PM 28.6°F-1.9°C 20.1°F-6.6°C 70% Calm Calm 2.0 mph3.2 kmh 30.16 in1021.3 mb 0.00 in0.0 mm 0.00 in0.0 mm 0.01 in0.3 mm
06:40 PM 28.4°F-2.0°C 19.9°F-6.7°C 70% Calm Calm 2.0 mph3.2 kmh 30.16 in1021.3 mb 0.00 in0.0 mm 0.00 in0.0 mm 0.01 in0.3 mm
06:45 PM 28.4°F-2.0°C 19.9°F-6.7°C 70% Calm Calm 4.0 mph6.4 kmh 30.17 in1021.7 mb 0.00 in0.0 mm 0.00 in0.0 mm 0.01 in0.3 mm
06:50 PM 28.2°F-2.1°C 19.8°F-6.8°C 70% Calm Calm 0.9 mph1.4 kmh 30.16 in1021.3 mb 0.00 in0.0 mm 0.00 in0.0 mm 0.01 in0.3 mm
06:55 PM 28.2°F-2.1°C 19.4°F-7.0°C 69% Calm Calm 2.9 mph4.7 kmh 30.17 in1021.7 mb 0.00 in0.0 mm 0.00 in0.0 mm 0.01 in0.3 mm
07:00 PM 28.2°F-2.1°C 19.0°F-7.2°C 68% Calm Calm 0.9 mph1.4 kmh 30.17 in1021.7 mb 0.00 in0.0 mm 0.00 in0.0 mm 0.01 in0.3 mm
07:05 PM 28.0°F-2.2°C 18.9°F-7.3°C 68% Calm Calm 2.0 mph3.2 kmh 30.17 in1021.7 mb 0.00 in0.0 mm 0.00 in0.0 mm 0.01 in0.3 mm
07:10 PM 28.0°F-2.2°C 18.5°F-7.5°C 67% 0.9 mph SW1.4 kmh SW 7.0 mph11.3 kmh 30.17 in1021.7 mb 0.00 in0.0 mm 0.00 in0.0 mm 0.01 in0.3 mm
07:15 PM 27.9°F-2.3°C 18.3°F-7.6°C 67% 0.9 mph W1.4 kmh W 4.0 mph6.4 kmh 30.17 in1021.7 mb 0.00 in0.0 mm 0.00 in0.0 mm 0.01 in0.3 mm
07:20 PM 27.9°F-2.3°C 18.7°F-7.4°C 68% 0.9 mph SW1.4 kmh SW 2.9 mph4.7 kmh 30.18 in1022.0 mb 0.00 in0.0 mm 0.00 in0.0 mm 0.01 in0.3 mm
07:25 PM 27.9°F-2.3°C 19.0°F-7.2°C 69% 0.9 mph W1.4 kmh W 4.0 mph6.4 kmh 30.18 in1022.0 mb 0.00 in0.0 mm 0.00 in0.0 mm 0.01 in0.3 mm
07:30 PM 27.7°F-2.4°C 19.2°F-7.1°C 70% 0.9 mph N1.4 kmh N 2.0 mph3.2 kmh 30.18 in1022.0 mb 0.00 in0.0 mm 0.00 in0.0 mm 0.01 in0.3 mm
07:35 PM 27.7°F-2.4°C 19.2°F-7.1°C 70% 0.9 mph WNW1.4 kmh WNW 4.0 mph6.4 kmh 30.18 in1022.0 mb 0.00 in0.0 mm 0.00 in0.0 mm 0.01 in0.3 mm
07:40 PM 27.5°F-2.5°C 19.4°F-7.0°C 71% 2.0 mph WNW3.2 kmh WNW 5.0 mph8.0 kmh 30.18 in1022.0 mb 0.00 in0.0 mm 0.00 in0.0 mm 0.01 in0.3 mm
07:45 PM 27.3°F-2.6°C 19.6°F-6.9°C 72% 0.9 mph W1.4 kmh W 2.9 mph4.7 kmh 30.19 in1022.4 mb 0.00 in0.0 mm 0.00 in0.0 mm 0.01 in0.3 mm
07:50 PM 27.3°F-2.6°C 19.8°F-6.8°C 73% 0.9 mph NNW1.4 kmh NNW 4.0 mph6.4 kmh 30.19 in1022.4 mb 0.00 in0.0 mm 0.00 in0.0 mm 0.01 in0.3 mm
07:55 PM 27.1°F-2.7°C 19.6°F-6.9°C 73% 0.9 mph SW1.4 kmh SW 5.0 mph8.0 kmh 30.19 in1022.4 mb 0.00 in0.0 mm 0.00 in0.0 mm 0.01 in0.3 mm
08:00 PM 27.0°F-2.8°C 19.4°F-7.0°C 73% 0.9 mph WNW1.4 kmh WNW 4.0 mph6.4 kmh 30.19 in1022.4 mb 0.00 in0.0 mm 0.00 in0.0 mm 0.01 in0.3 mm
08:05 PM 27.0°F-2.8°C 19.4°F-7.0°C 73% 2.0 mph W3.2 kmh W 6.0 mph9.7 kmh 30.19 in1022.4 mb 0.00 in0.0 mm 0.00 in0.0 mm 0.01 in0.3 mm
08:10 PM 26.8°F-2.9°C 19.2°F-7.1°C 73% 0.9 mph NW1.4 kmh NW 4.0 mph6.4 kmh 30.19 in1022.4 mb 0.00 in0.0 mm 0.00 in0.0 mm 0.01 in0.3 mm
08:15 PM 26.6°F-3.0°C 19.0°F-7.2°C 73% 0.9 mph W1.4 kmh W 2.9 mph4.7 kmh 30.19 in1022.4 mb 0.00 in0.0 mm 0.00 in0.0 mm 0.01 in0.3 mm
08:20 PM 26.4°F-3.1°C 18.9°F-7.3°C 73% 0.9 mph NNW1.4 kmh NNW 7.0 mph11.3 kmh 30.19 in1022.4 mb 0.00 in0.0 mm 0.00 in0.0 mm 0.01 in0.3 mm
08:25 PM 26.2°F-3.2°C 19.0°F-7.2°C 74% 0.9 mph W1.4 kmh W 4.0 mph6.4 kmh 30.19 in1022.4 mb 0.00 in0.0 mm 0.00 in0.0 mm 0.01 in0.3 mm
08:30 PM 26.2°F-3.2°C 19.0°F-7.2°C 74% 0.9 mph NW1.4 kmh NW 2.9 mph4.7 kmh 30.20 in1022.7 mb 0.00 in0.0 mm 0.00 in0.0 mm 0.01 in0.3 mm
08:35 PM 26.1°F-3.3°C 19.2°F-7.1°C 75% 0.9 mph N1.4 kmh N 4.0 mph6.4 kmh 30.20 in1022.7 mb 0.00 in0.0 mm 0.00 in0.0 mm 0.01 in0.3 mm
08:40 PM 25.9°F-3.4°C 19.4°F-7.0°C 76% 0.9 mph WNW1.4 kmh WNW 4.0 mph6.4 kmh 30.20 in1022.7 mb 0.00 in0.0 mm 0.00 in0.0 mm 0.01 in0.3 mm
08:45 PM 25.9°F-3.4°C 19.4°F-7.0°C 76% 2.0 mph WNW3.2 kmh WNW 8.1 mph13.0 kmh 30.20 in1022.7 mb 0.00 in0.0 mm 0.00 in0.0 mm 0.01 in0.3 mm
08:50 PM 25.5°F-3.6°C 18.7°F-7.4°C 75% 2.9 mph N4.7 kmh N 9.0 mph14.5 kmh 30.21 in1023.0 mb 0.00 in0.0 mm 0.00 in0.0 mm 0.01 in0.3 mm
08:55 PM 25.2°F-3.8°C 18.0°F-7.8°C 74% 2.9 mph N4.7 kmh N 8.1 mph13.0 kmh 30.21 in1023.0 mb 0.00 in0.0 mm 0.00 in0.0 mm 0.01 in0.3 mm
09:00 PM 25.0°F-3.9°C 18.0°F-7.8°C 74% 2.9 mph NW4.7 kmh NW 11.0 mph17.7 kmh 30.21 in1023.0 mb 0.00 in0.0 mm 0.00 in0.0 mm 0.01 in0.3 mm
09:05 PM 24.6°F-4.1°C 17.2°F-8.2°C 73% 4.0 mph WNW6.4 kmh WNW 18.0 mph29.0 kmh 30.21 in1023.0 mb 0.00 in0.0 mm 0.00 in0.0 mm 0.01 in0.3 mm
09:10 PM 24.4°F-4.2°C 17.4°F-8.1°C 74% 4.0 mph N6.4 kmh N 11.0 mph17.7 kmh 30.22 in1023.4 mb 0.00 in0.0 mm 0.00 in0.0 mm 0.01 in0.3 mm
09:15 PM 24.1°F-4.4°C 16.7°F-8.5°C 73% 4.0 mph N6.4 kmh N 10.1 mph16.3 kmh 30.22 in1023.4 mb 0.00 in0.0 mm 0.00 in0.0 mm 0.01 in0.3 mm
09:20 PM 23.9°F-4.5°C 16.9°F-8.4°C 74% 2.9 mph NNE4.7 kmh NNE 4.9 mph7.9 kmh 30.22 in1023.4 mb 0.00 in0.0 mm 0.00 in0.0 mm 0.01 in0.3 mm
09:25 PM 23.7°F-4.6°C 16.7°F-8.5°C 74% 2.9 mph NW4.7 kmh NW 13.0 mph20.9 kmh 30.22 in1023.4 mb 0.00 in0.0 mm 0.00 in0.0 mm 0.01 in0.3 mm
09:30 PM 23.4°F-4.8°C 16.3°F-8.7°C 74% 2.9 mph NW4.7 kmh NW 10.1 mph16.3 kmh 30.23 in1023.7 mb 0.00 in0.0 mm 0.00 in0.0 mm 0.01 in0.3 mm
09:35 PM 23.2°F-4.9°C 16.5°F-8.6°C 75% 2.9 mph NW4.7 kmh NW 6.9 mph11.1 kmh 30.24 in1024.0 mb 0.00 in0.0 mm 0.00 in0.0 mm 0.01 in0.3 mm
09:40 PM 22.8°F-5.1°C 16.2°F-8.8°C 75% 2.9 mph N4.7 kmh N 8.1 mph13.0 kmh 30.24 in1024.0 mb 0.00 in0.0 mm 0.00 in0.0 mm 0.01 in0.3 mm
09:45 PM 22.6°F-5.2°C 16.0°F-8.9°C 75% 2.9 mph WNW4.7 kmh WNW 14.1 mph22.7 kmh 30.24 in1024.0 mb 0.00 in0.0 mm 0.00 in0.0 mm 0.01 in0.3 mm
09:50 PM 22.5°F-5.3°C 16.0°F-8.9°C 76% 2.9 mph NW4.7 kmh NW 6.9 mph11.1 kmh 30.24 in1024.0 mb 0.00 in0.0 mm 0.00 in0.0 mm 0.01 in0.3 mm
09:55 PM 22.1°F-5.5°C 15.6°F-9.1°C 76% 2.0 mph NNW3.2 kmh NNW 6.9 mph11.1 kmh 30.24 in1024.0 mb 0.00 in0.0 mm 0.00 in0.0 mm 0.01 in0.3 mm
10:00 PM 21.9°F-5.6°C 15.8°F-9.0°C 77% 2.9 mph N4.7 kmh N 8.1 mph13.0 kmh 30.24 in1024.0 mb 0.00 in0.0 mm 0.00 in0.0 mm 0.01 in0.3 mm
10:05 PM 21.7°F-5.7°C 15.6°F-9.1°C 77% 2.9 mph NW4.7 kmh NW 10.1 mph16.3 kmh 30.24 in1024.0 mb 0.00 in0.0 mm 0.00 in0.0 mm 0.01 in0.3 mm
10:10 PM 21.4°F-5.9°C 15.3°F-9.3°C 77% 2.9 mph WSW4.7 kmh WSW 12.1 mph19.5 kmh 30.24 in1024.0 mb 0.00 in0.0 mm 0.00 in0.0 mm 0.01 in0.3 mm
10:15 PM 21.2°F-6.0°C 15.1°F-9.4°C 77% 2.9 mph N4.7 kmh N 6.9 mph11.1 kmh 30.25 in1024.4 mb 0.00 in0.0 mm 0.00 in0.0 mm 0.01 in0.3 mm
10:20 PM 21.0°F-6.1°C 14.9°F-9.5°C 77% 2.9 mph W4.7 kmh W 6.9 mph11.1 kmh 30.25 in1024.4 mb 0.00 in0.0 mm 0.00 in0.0 mm 0.01 in0.3 mm
10:25 PM 20.8°F-6.2°C 15.1°F-9.4°C 78% 2.9 mph NNE4.7 kmh NNE 8.1 mph13.0 kmh 30.25 in1024.4 mb 0.00 in0.0 mm 0.00 in0.0 mm 0.01 in0.3 mm
10:30 PM 20.7°F-6.3°C 14.9°F-9.5°C 78% 2.9 mph NW4.7 kmh NW 6.0 mph9.7 kmh 30.25 in1024.4 mb 0.00 in0.0 mm 0.00 in0.0 mm 0.01 in0.3 mm
10:35 PM 20.5°F-6.4°C 15.1°F-9.4°C 79% 2.0 mph NW3.2 kmh NW 8.1 mph13.0 kmh 30.25 in1024.4 mb 0.00 in0.0 mm 0.00 in0.0 mm 0.01 in0.3 mm
10:40 PM 20.1°F-6.6°C 14.7°F-9.6°C 79% 2.0 mph NNE3.2 kmh NNE 4.0 mph6.4 kmh 30.25 in1024.4 mb 0.00 in0.0 mm 0.00 in0.0 mm 0.01 in0.3 mm
10:45 PM 19.9°F-6.7°C 14.5°F-9.7°C 79% 2.0 mph W3.2 kmh W 6.0 mph9.7 kmh 30.25 in1024.4 mb 0.00 in0.0 mm 0.00 in0.0 mm 0.01 in0.3 mm
10:50 PM 19.8°F-6.8°C 14.4°F-9.8°C 79% 2.9 mph N4.7 kmh N 7.0 mph11.3 kmh 30.25 in1024.4 mb 0.00 in0.0 mm 0.00 in0.0 mm 0.01 in0.3 mm
10:55 PM 19.6°F-6.9°C 14.2°F-9.9°C 79% 2.9 mph NNW4.7 kmh NNW 11.0 mph17.7 kmh 30.25 in1024.4 mb 0.00 in0.0 mm 0.00 in0.0 mm 0.01 in0.3 mm
11:00 PM 19.4°F-7.0°C 14.0°F-10.0°C 79% 2.0 mph WNW3.2 kmh WNW 6.9 mph11.1 kmh 30.26 in1024.7 mb 0.00 in0.0 mm 0.00 in0.0 mm 0.01 in0.3 mm
11:05 PM 19.2°F-7.1°C 14.0°F-10.0°C 80% 0.9 mph NNW1.4 kmh NNW 9.0 mph14.5 kmh 30.26 in1024.7 mb 0.00 in0.0 mm 0.00 in0.0 mm 0.01 in0.3 mm
11:10 PM 19.0°F-7.2°C 13.8°F-10.1°C 80% 2.0 mph NNW3.2 kmh NNW 6.9 mph11.1 kmh 30.26 in1024.7 mb 0.00 in0.0 mm 0.00 in0.0 mm 0.01 in0.3 mm
11:15 PM 18.9°F-7.3°C 13.6°F-10.2°C 80% 0.9 mph NNW1.4 kmh NNW 4.9 mph7.9 kmh 30.26 in1024.7 mb 0.00 in0.0 mm 0.00 in0.0 mm 0.01 in0.3 mm
11:20 PM 18.7°F-7.4°C 13.5°F-10.3°C 80% 0.9 mph NW1.4 kmh NW 4.0 mph6.4 kmh 30.26 in1024.7 mb 0.00 in0.0 mm 0.00 in0.0 mm 0.01 in0.3 mm
11:25 PM 18.5°F-7.5°C 13.6°F-10.2°C 81% 0.9 mph NW1.4 kmh NW 6.0 mph9.7 kmh 30.26 in1024.7 mb 0.00 in0.0 mm 0.00 in0.0 mm 0.01 in0.3 mm
11:30 PM 18.3°F-7.6°C 13.5°F-10.3°C 81% 0.9 mph NNW1.4 kmh NNW 4.9 mph7.9 kmh 30.27 in1025.1 mb 0.00 in0.0 mm 0.00 in0.0 mm 0.01 in0.3 mm
11:35 PM 18.1°F-7.7°C 13.3°F-10.4°C 81% 0.9 mph NW1.4 kmh NW 0.9 mph1.4 kmh 30.27 in1025.1 mb 0.00 in0.0 mm 0.00 in0.0 mm 0.01 in0.3 mm
11:40 PM 17.8°F-7.9°C 12.9°F-10.6°C 81% Calm Calm 5.0 mph8.0 kmh 30.27 in1025.1 mb 0.00 in0.0 mm 0.00 in0.0 mm 0.01 in0.3 mm
11:45 PM 17.6°F-8.0°C 12.7°F-10.7°C 81% 0.9 mph WNW1.4 kmh WNW 2.9 mph4.7 kmh 30.27 in1025.1 mb 0.00 in0.0 mm 0.00 in0.0 mm 0.01 in0.3 mm
11:50 PM 17.4°F-8.1°C 12.9°F-10.6°C 82% 0.9 mph NNW1.4 kmh NNW 2.9 mph4.7 kmh 30.27 in1025.1 mb 0.00 in0.0 mm 0.00 in0.0 mm 0.01 in0.3 mm
11:55 PM 17.2°F-8.2°C 12.7°F-10.7°C 82% Calm Calm 2.9 mph4.7 kmh 30.27 in1025.1 mb 0.00 in0.0 mm 0.00 in0.0 mm 0.01 in0.3 mm